Nearby METAR Reports

 

KPBH - Phillips, Wisconsin, USA
Distance from station: SE 13mi, 21km
Updated: 12/12/2018 3:15pm
Light snow, Overcast
Light snow, Overcast
 Wind from calm
Wind: Calm
Temperature: 30°F , -1°C
Dew Point: 28°F , -2°C
Humidity: 93%
Barometer: 29.74 inHg , 1007.1 hPa
Summary: Light Snow
Clouds: Overcast
Visibility: 7 miles , 11 km
Cloud details: Overcast 1100 ft
2018/12/12 21:15 KPBH 122115Z AUTO 00000KT 7SM -SN OVC011 M01/M02 A2974 RMK AO2 T10101017
KRCX - Ladysmith/Rusk, Wisconsin, USA
Distance from station: SW 29mi, 46km
Updated: 12/12/2018 3:15pm
Overcast
Overcast
 Wind from calm
Wind: Calm
Temperature: 32°F , 0°C
Dew Point: 30°F , -1°C
Humidity: 93%
Barometer: 29.77 inHg , 1008.1 hPa
Clouds: Overcast
Visibility: 10 miles , 16 km
Cloud details: Overcast 1500 ft
2018/12/12 21:15 KRCX 122115Z AUTO 00000KT 10SM OVC015 00/M01 A2977 RMK AO2 T00021012
 
KD25 - Manitowish Water, Wisconsin, USA
Distance from station: ENE 41mi, 66km
Updated: 12/12/2018 3:15pm
Overcast
Overcast
 Wind from ENE
Wind: ENE 3 mph , 6 km/h
Temperature: 28°F , -2°C
Dew Point: 28°F , -2°C
Humidity: 100%
Barometer: 29.74 inHg , 1007.1 hPa
Clouds: Overcast
Visibility: 7 miles , 11 km
Cloud details: Overcast 800 ft
2018/12/12 21:15 KD25 122115Z AUTO 07003KT 7SM OVC008 M02/M02 A2974 RMK AO2 T10161016
KHYR - Hayward, Wisconsin, USA
Distance from station: WNW 42mi, 68km
Updated: 12/12/2018 2:53pm
Haze, Overcast
Haze, Overcast
 Wind from NNE
Wind: NNE 5 mph , 7 km/h
Temperature: 30°F , -1°C
Wind Chill: 25°F , -4°C
Dew Point: 27°F , -3°C
Humidity: 86%
Barometer: 29.75 inHg , 1007.5 hPa
Summary: Haze
Clouds: Overcast
Visibility: 5 miles , 8 km
Cloud details: Overcast 1600 ft
2018/12/12 20:53 KHYR 122053Z AUTO 03004KT 5SM HZ OVC016 M01/M03 A2975 RMK AO2 SLP093 T10061033 53009
 
KARV - Minocqua/Woodruf, Wisconsin, USA
Distance from station: E 44mi, 71km
Updated: 12/12/2018 3:15pm
Overcast
Overcast
 Wind from calm
Wind: Calm
Temperature: 32°F , 0°C
Dew Point: 30°F , -1°C
Humidity: 93%
Barometer: 29.74 inHg , 1007.1 hPa
Clouds: Overcast
Visibility: 7 miles , 11 km
Cloud details: Overcast 700 ft
2018/12/12 21:15 KARV 122115Z AUTO 00000KT 7SM OVC007 00/M01 A2974 RMK AO2 T10011015
KTKV - Tomahawk Regnl, Wisconsin, USA
Distance from station: ESE 46mi, 74km
Updated: 12/12/2018 3:15pm
Overcast
Overcast
 Wind from calm
Wind: Calm
Temperature: 30°F , -1°C
Dew Point: 27°F , -3°C
Humidity: 86%
Barometer: 29.75 inHg , 1007.5 hPa
Clouds: Overcast
Visibility: 7 miles , 11 km
Cloud details: Overcast 1200 ft
2018/12/12 21:15 KTKV 122115Z AUTO 00000KT 7SM OVC012 M01/M03 A2975 RMK AO2 T10111031